Česky Dansk Deutsch English Español Suomi Français Magyar Italiano Nederlands norsk Polski Português svenska Türkçe

 

Het Weer

Kuusamo (Finland)

22:20, 21 augustus 2016 (GMT)

NWNNE
WE
SWSSE
Home            
Kuusamo Suomussalmi Pudasjarvi Rovaniemi Sodankyla Kajaani Kemi Oulu Hailuoto Pello Kittila Ivalo Lulea / Kallax Kuopio Viitasaari Enontekio Joensuu Murmansk Kruunupyy Gallivare Skelleftea Airport Vidsel Kirkenes Lufthavn

Om een weerknop op uw website of weblog te plaatsen, copieer onderstaande code en plak die in uw pagina. In het eerste vakje staat HTML-code, in het tweede vakje UBB-code.


Add to Google

Details

Wind speed:1 bf, 1 kn, 0.5 m/s, 1.2 miles/h, 1.9 km/h
Wind direction:ESE, 110°
Visibility:Greater than 10000 m, 10 km, 32800 ft, 6.2 miles
Clouds:CAVOC
Temperature:13°C, 55°F
Dew-point:12°C, 54°F
Atmospheric pressure:1020 hPa, 765.1 mmHg, 30.12 inHg, 1.007 atm
Relative humidity:93.6 %
METAR:EFKS 212220Z AUTO 11001KT CAVOK 13/12 Q1020

Snelkoppelingen

Actuele weersinformatie van de hele wereld. Voeg locaties toe met het plus (+) symbool. Deze snelkoppelingen kunnen worden toegevoegd aan Google.

Lid van de Technetium groep

website free tracking
StatCounter NetStat W3C Validator

06-12-2019 10:34:54
astro.technetium.be money.technetium.be phote.technetium.be tafeltennistafel.technetium.be www.ligfiets.net